Overview Statistics Trail Chart Weather Telemetry Raw packets
 

This is the latest recevied weather packets stored in our database for station/object OE6JVE-13. If no packets are shown the sender has not sent any weather packets the latest 10 day(s).

<< 7 8 9 10 11 12 13 >>
Time Temp. Humidity Pressure Rain* Wind** Luminosity Snow
1788563438 17.78° C 82% 1006.3 hPa 0 mm - - -
1788562846 17.78° C 81% 1006.5 hPa 0 mm - - -
1788562255 17.78° C 81% 1006.3 hPa 0 mm - - -
1788561662 17.78° C 81% 1006.2 hPa 0 mm - - -
1788561070 17.78° C 82% 1006.2 hPa 0 mm - - -
1788560015 17.78° C 81% 1006.2 hPa 0 mm - - -
1788556365 17.78° C 81% 1006.1 hPa 0 mm - - -
1788553362 18.33° C 79% 1006.2 hPa 0 mm - - -
1788552098 18.89° C 78% 1006.3 hPa 0 mm - - -
1788551029 19.44° C 77% 1006.3 hPa 0 mm - - -
1788549029 20° C 76% 1006.4 hPa 0 mm - - -
1788547849 20° C 75% 1006.6 hPa 0 mm - - -
1788547253 20° C 75% 1006.6 hPa 0 mm - - -
1788546661 20° C 75% 1006.6 hPa 0 mm - - -
1788546264 20.56° C 75% 1006.5 hPa 0 mm - - -
1788542451 22.22° C 71% 1006.4 hPa 0 mm - - -
1788542047 22.22° C 68% 1006.4 hPa 0 mm - - -
1788541443 22.78° C 65% 1006.3 hPa 0 mm - - -
1788540873 23.33° C 62% 1006.4 hPa 0 mm - - -
1788540021 23.89° C 60% 1006.3 hPa 0 mm - - -
1788539432 25° C 57% 1006.4 hPa 0 mm - - -
1788538832 25.56° C 52% 1006.5 hPa 0 mm - - -
1788538240 26.67° C 49% 1006.5 hPa 0 mm - - -
1788537649 27.22° C 46% 1006.6 hPa 0 mm - - -
1788537055 27.78° C 41% 1006.6 hPa 0 mm - - -

* Rain latest hour (hover to see other rain measurements)
** Current wind speed in m/s (hover to see current wind gust speed)